Portada
METAR-TAF:

METAR-TAF

Aeroports :

Johor Bahru, Malàisia

latitud: 01-38N, longitud: 103-40E, altitud: 37 m

Observació

L'informe es va fer fa 27 minuts, a les 17:00 UTC
Vent 3 kt del Est/Nord-Est
Temperatura 25°C
Humitat 94%
Pressió 1014 hPa
Visibilitat 10 km o més
Escasses núvols a una alçada de 2300 ft

METAR: WMKJ 211700Z 06003KT 9999 FEW023 25/24 Q1014

Hora: 01:27 (17:27 UTC)

Pronòstic

L'informe es va fer fa 6 hores i 27 minuts, a les 11:00 UTC
Pronòstic vàlid del 21 a les 12 UTC al 22 a les 12 UTC
Vent 6 kt del Nord-Est
Visibilitat 10 km o més
Escasses núvols a una alçada de 1800 ft
Temporalment
l' 22 a les 05 UTC al 22 a les 09 UTC
Visibilitat: 3000 m
Escasses núvols a una alçada de 800 ft
Escasses núvols a una alçada de 1600 ft, Cumulonimbus.
Núvols disperses a una alçada de 2000 ft
tempesta, pluja

TAF: WMKJ 211100Z 2112/2212 05006KT 9999 FEW018 TEMPO 2205/2209 3000 TSRA FEW008 FEW016CB SCT020

Observacions i pronòstics meteorològics de més de 4000 aeroports (METAR i TAF).

Les estacions disponibles són els punts grocs i vermells al mapa.

Posi el ratolí al punt desitjat per veure el nom de l'estació.

Feu clic per veure les observacions i els pronòstics meteorològics.

Per canviar el mapa: feu clic els botons verds amb una creu de color negre per apropar; al botó verd amb un guió per allunyar la imatge; o en les fletxes verdes per a mapes adjacents.


METAR-TAF: